createdAt,value
2022-08-20T00:01:17.378Z,43.20
2022-08-20T00:03:23.365Z,43.20
2022-08-20T00:05:30.372Z,43.30
2022-08-20T00:07:32.150Z,43.20
2022-08-20T00:09:36.740Z,43.20
2022-08-20T00:11:38.682Z,43.20
2022-08-20T00:13:42.452Z,43.00
2022-08-20T00:15:44.715Z,43.00
2022-08-20T00:17:46.319Z,43.00
2022-08-20T00:19:47.890Z,43.00
2022-08-20T00:21:49.472Z,43.00
2022-08-20T00:23:51.811Z,43.00
2022-08-20T00:25:53.473Z,43.00
2022-08-20T00:27:56.210Z,43.00
2022-08-20T00:29:57.864Z,42.90
2022-08-20T00:31:59.561Z,42.90
2022-08-20T00:34:01.150Z,42.90
2022-08-20T00:36:06.650Z,43.00
2022-08-20T00:38:08.535Z,43.10
2022-08-20T00:40:22.514Z,43.00
2022-08-20T00:42:25.395Z,43.10
2022-08-20T00:44:27.392Z,43.00
2022-08-20T00:46:31.483Z,43.70
2022-08-20T00:48:35.361Z,43.00
2022-08-20T00:50:37.601Z,43.00
2022-08-20T00:52:40.064Z,43.00
2022-08-20T00:55:01.789Z,43.00
2022-08-20T00:57:05.656Z,43.00
2022-08-20T00:59:11.318Z,43.10
2022-08-20T01:01:15.684Z,42.90
2022-08-20T01:03:18.424Z,43.00
2022-08-20T01:05:21.309Z,43.00
2022-08-20T01:07:34.760Z,43.10
2022-08-20T01:09:57.627Z,43.10
2022-08-20T01:11:59.079Z,43.00
2022-08-20T01:14:03.931Z,42.90
2022-08-20T01:16:10.028Z,42.90
2022-08-20T01:18:13.731Z,42.90
2022-08-20T01:20:25.955Z,43.00
2022-08-20T01:22:49.130Z,43.00
2022-08-20T01:24:52.355Z,43.00
2022-08-20T01:26:54.378Z,43.10
2022-08-20T01:28:58.759Z,43.00
2022-08-20T01:31:00.424Z,43.00
2022-08-20T01:33:02.547Z,43.00
2022-08-20T01:35:04.613Z,42.90
2022-08-20T01:37:06.316Z,43.00
2022-08-20T01:39:09.520Z,43.00
2022-08-20T01:41:29.365Z,42.80
2022-08-20T01:43:31.149Z,42.80
2022-08-20T01:45:36.956Z,42.80
2022-08-20T01:47:41.720Z,42.90
2022-08-20T01:49:49.704Z,42.90
2022-08-20T01:51:55.191Z,42.80
2022-08-20T01:53:59.602Z,42.80
2022-08-20T01:56:02.782Z,42.80
2022-08-20T01:58:04.395Z,42.90
2022-08-20T02:00:08.702Z,42.90
2022-08-20T02:02:16.216Z,42.80
2022-08-20T02:04:18.227Z,42.90
2022-08-20T02:06:22.428Z,42.90
2022-08-20T02:08:24.590Z,43.00
2022-08-20T02:10:26.170Z,42.90
2022-08-20T02:12:27.741Z,42.90
2022-08-20T02:14:29.371Z,42.90
2022-08-20T02:16:32.657Z,42.80
2022-08-20T02:18:34.286Z,42.80
2022-08-20T02:20:36.203Z,42.80
2022-08-20T02:22:50.024Z,42.80
2022-08-20T02:24:52.290Z,42.80
2022-08-20T02:26:54.635Z,42.80
2022-08-20T02:28:57.071Z,42.70
2022-08-20T02:31:03.971Z,42.80
2022-08-20T02:33:07.347Z,42.70
2022-08-20T02:35:10.252Z,42.70
2022-08-20T02:37:14.818Z,42.80
2022-08-20T02:39:16.449Z,42.90
2022-08-20T02:41:18.419Z,42.80
2022-08-20T02:43:21.484Z,42.80
2022-08-20T02:45:23.163Z,42.90
2022-08-20T02:47:27.620Z,42.80
2022-08-20T02:49:29.246Z,42.90
2022-08-20T02:51:31.153Z,42.90
2022-08-20T02:53:35.390Z,42.90
2022-08-20T02:55:36.995Z,42.80
2022-08-20T02:57:39.110Z,42.80
2022-08-20T02:59:40.706Z,42.80
2022-08-20T03:01:42.540Z,42.80
2022-08-20T03:03:44.631Z,42.80
2022-08-20T03:05:46.236Z,42.80
2022-08-20T03:07:49.364Z,42.70
2022-08-20T03:09:50.947Z,42.70
2022-08-20T03:11:52.911Z,42.70
2022-08-20T03:13:54.555Z,42.70
2022-08-20T03:15:58.942Z,42.70
2022-08-20T03:18:01.012Z,42.70
2022-08-20T03:20:04.681Z,42.70
2022-08-20T03:22:06.265Z,42.70
2022-08-20T03:24:07.923Z,42.70
2022-08-20T03:26:10.700Z,42.70
2022-08-20T03:28:12.574Z,43.40
2022-08-20T03:30:15.272Z,42.70
2022-08-20T03:32:17.068Z,42.80
2022-08-20T03:34:18.898Z,42.70
2022-08-20T03:36:22.268Z,42.70
2022-08-20T03:38:32.818Z,42.80
2022-08-20T03:40:36.137Z,42.70
2022-08-20T03:42:40.321Z,42.80
2022-08-20T03:44:41.918Z,42.70
2022-08-20T03:46:43.916Z,42.90
2022-08-20T03:48:45.467Z,42.90
2022-08-20T03:50:48.116Z,42.80
2022-08-20T03:52:49.982Z,42.80
2022-08-20T03:54:51.560Z,42.80
2022-08-20T03:56:53.161Z,42.70
2022-08-20T03:58:54.761Z,42.70
2022-08-20T04:00:56.583Z,42.70
2022-08-20T04:02:58.219Z,42.70
2022-08-20T04:04:59.770Z,42.70
2022-08-20T04:07:08.487Z,42.90
2022-08-20T04:09:11.816Z,42.80
2022-08-20T04:11:14.020Z,42.80
2022-08-20T04:13:16.144Z,42.80
2022-08-20T04:15:19.272Z,42.70
2022-08-20T04:17:20.990Z,42.80
2022-08-20T04:19:24.202Z,42.90
2022-08-20T04:21:25.844Z,42.90
2022-08-20T04:23:32.857Z,42.80
2022-08-20T04:25:36.181Z,42.80
2022-08-20T04:27:38.297Z,42.80
2022-08-20T04:29:43.025Z,42.80
2022-08-20T04:31:44.631Z,42.80
2022-08-20T04:33:46.220Z,42.90
2022-08-20T04:35:47.957Z,42.80
2022-08-20T04:37:49.785Z,42.80
2022-08-20T04:40:10.099Z,42.80
2022-08-20T04:42:11.725Z,42.80
2022-08-20T04:44:13.363Z,42.80
2022-08-20T04:46:15.378Z,42.80
2022-08-20T04:48:16.962Z,42.90
2022-08-20T04:50:19.458Z,42.90
2022-08-20T04:52:21.035Z,42.80
2022-08-20T04:54:22.692Z,43.00
2022-08-20T04:56:26.392Z,42.80
2022-08-20T04:58:30.258Z,42.80
2022-08-20T05:00:32.031Z,42.90
2022-08-20T05:02:35.162Z,42.90
2022-08-20T05:04:38.051Z,42.90
2022-08-20T05:06:41.135Z,42.90
2022-08-20T05:08:43.204Z,42.90
2022-08-20T05:10:45.177Z,42.90
2022-08-20T05:12:56.817Z,42.90
2022-08-20T05:14:58.921Z,42.90
2022-08-20T05:17:06.694Z,42.90
2022-08-20T05:19:10.044Z,42.80
2022-08-20T05:21:11.866Z,42.90
2022-08-20T05:23:18.784Z,42.80
2022-08-20T05:25:21.746Z,42.90
2022-08-20T05:27:26.952Z,43.00
2022-08-20T05:29:28.580Z,42.90
2022-08-20T05:31:31.302Z,42.80
2022-08-20T05:33:35.757Z,42.90
2022-08-20T05:35:43.077Z,43.00
2022-08-20T05:37:44.916Z,43.00
2022-08-20T05:39:46.551Z,43.00
2022-08-20T05:41:49.820Z,43.00
2022-08-20T05:43:51.555Z,43.00
2022-08-20T05:45:56.604Z,43.10
2022-08-20T05:47:58.609Z,43.10
2022-08-20T05:50:05.720Z,43.10
2022-08-20T05:52:07.413Z,42.90
2022-08-20T05:54:09.731Z,43.00
2022-08-20T05:56:11.414Z,43.10
2022-08-20T05:58:18.604Z,43.00
2022-08-20T06:00:20.177Z,43.00
2022-08-20T06:02:40.341Z,43.10
2022-08-20T06:04:41.932Z,43.10
2022-08-20T06:06:45.596Z,43.10
2022-08-20T06:08:48.328Z,43.10
2022-08-20T06:10:49.920Z,43.00
2022-08-20T06:12:53.163Z,43.10
2022-08-20T06:14:54.742Z,43.00
2022-08-20T06:17:01.778Z,43.10
2022-08-20T06:19:03.363Z,43.10
2022-08-20T06:21:05.213Z,43.10
2022-08-20T06:23:06.912Z,43.10
2022-08-20T06:25:08.920Z,43.10
2022-08-20T06:27:14.322Z,43.10
2022-08-20T06:29:15.896Z,43.10
2022-08-20T06:31:17.531Z,43.20
2022-08-20T06:33:21.662Z,43.20
2022-08-20T06:35:23.631Z,43.20
2022-08-20T06:37:31.320Z,43.20
2022-08-20T06:39:33.393Z,43.20
2022-08-20T06:41:37.070Z,43.10
2022-08-20T06:43:38.801Z,43.10
2022-08-20T06:45:40.481Z,43.20
2022-08-20T06:47:43.781Z,43.10
2022-08-20T06:49:46.012Z,43.20
2022-08-20T06:51:51.904Z,43.90
2022-08-20T06:53:53.868Z,43.10
2022-08-20T06:55:56.501Z,43.20
2022-08-20T06:58:02.363Z,43.30
2022-08-20T07:00:05.105Z,43.10
2022-08-20T07:02:06.712Z,43.10
2022-08-20T07:04:08.416Z,43.20
2022-08-20T07:06:10.023Z,43.20
2022-08-20T07:08:13.560Z,43.20
2022-08-20T07:10:16.347Z,43.10
2022-08-20T07:12:17.943Z,43.00
2022-08-20T07:14:19.840Z,43.10
2022-08-20T07:16:21.480Z,43.10
2022-08-20T07:18:28.548Z,43.20
2022-08-20T07:20:32.284Z,43.20
2022-08-20T07:22:36.869Z,43.10
2022-08-20T07:24:41.132Z,43.10
2022-08-20T07:26:43.694Z,43.20
2022-08-20T07:28:45.850Z,43.30
2022-08-20T07:31:13.243Z,43.10
2022-08-20T07:33:16.198Z,43.20
2022-08-20T07:35:20.183Z,43.10
2022-08-20T07:37:23.732Z,43.30
2022-08-20T07:39:25.684Z,43.30
2022-08-20T07:41:27.722Z,43.30
2022-08-20T07:43:29.511Z,43.20
2022-08-20T07:45:31.197Z,43.20
2022-08-20T07:47:36.021Z,43.10
2022-08-20T07:49:38.306Z,43.30
2022-08-20T07:51:40.346Z,43.30
2022-08-20T07:53:41.940Z,43.30
2022-08-20T07:55:49.912Z,43.30
2022-08-20T07:58:06.633Z,43.30
2022-08-20T08:00:09.535Z,43.30
2022-08-20T08:02:11.104Z,43.30
2022-08-20T08:04:12.821Z,44.00
2022-08-20T08:06:14.537Z,43.30
2022-08-20T08:08:24.209Z,43.30
2022-08-20T08:10:25.959Z,43.40
2022-08-20T08:12:33.003Z,43.30
2022-08-20T08:14:34.879Z,43.30
2022-08-20T08:16:36.891Z,43.30
2022-08-20T08:18:43.547Z,43.40
2022-08-20T08:20:46.858Z,43.30
2022-08-20T08:22:49.028Z,43.40
2022-08-20T08:24:57.025Z,43.30
2022-08-20T08:26:59.451Z,43.20
2022-08-20T08:29:01.008Z,43.30
2022-08-20T08:31:02.675Z,43.20
2022-08-20T08:33:23.128Z,43.30
2022-08-20T08:35:25.373Z,43.40
2022-08-20T08:37:30.511Z,43.30
2022-08-20T08:39:34.994Z,43.40
2022-08-20T08:41:40.107Z,43.50
2022-08-20T08:43:42.093Z,43.40
2022-08-20T08:45:45.811Z,43.50
2022-08-20T08:47:47.653Z,43.50
2022-08-20T08:49:50.050Z,43.50
2022-08-20T08:51:56.056Z,43.50
2022-08-20T08:54:04.614Z,43.40
2022-08-20T08:56:08.591Z,43.40
2022-08-20T08:58:16.964Z,43.40
2022-08-20T09:00:21.531Z,43.40
2022-08-20T09:02:25.941Z,43.40
2022-08-20T09:04:31.794Z,43.40
2022-08-20T09:06:33.631Z,43.30
2022-08-20T09:08:49.790Z,43.40
2022-08-20T09:10:51.521Z,43.40
2022-08-20T09:12:53.297Z,43.40
2022-08-20T09:14:54.963Z,43.40
2022-08-20T09:16:56.541Z,43.40
2022-08-20T09:18:58.159Z,43.40
2022-08-20T09:20:59.765Z,43.40
2022-08-20T09:23:01.528Z,43.40
2022-08-20T09:25:03.601Z,43.40
2022-08-20T09:27:05.399Z,43.40
2022-08-20T09:29:07.078Z,43.40
2022-08-20T09:31:08.844Z,43.40
2022-08-20T09:33:10.438Z,43.40
2022-08-20T09:35:13.259Z,43.50
2022-08-20T09:37:15.227Z,43.40
2022-08-20T09:39:16.850Z,43.30
2022-08-20T09:41:18.465Z,43.40
2022-08-20T09:43:20.069Z,43.40
2022-08-20T09:45:22.051Z,43.30
2022-08-20T09:47:23.663Z,43.30
2022-08-20T09:49:25.240Z,43.40
2022-08-20T09:51:27.590Z,43.40
2022-08-20T09:53:29.478Z,43.30
2022-08-20T09:55:38.964Z,43.40
2022-08-20T09:57:40.642Z,43.50
2022-08-20T09:59:42.567Z,43.50
2022-08-20T10:01:44.173Z,43.40
2022-08-20T10:03:48.082Z,43.40
2022-08-20T10:05:49.745Z,43.30
2022-08-20T10:07:51.384Z,43.40
2022-08-20T10:09:52.961Z,43.40
2022-08-20T10:11:54.547Z,43.40
2022-08-20T10:13:56.108Z,43.40
2022-08-20T10:15:57.800Z,43.40
2022-08-20T10:18:04.040Z,43.30
2022-08-20T10:20:05.969Z,43.30
2022-08-20T10:22:07.620Z,43.30
2022-08-20T10:24:09.207Z,43.30
2022-08-20T10:26:11.950Z,43.40
2022-08-20T10:28:13.536Z,43.30
2022-08-20T10:30:15.308Z,43.30
2022-08-20T10:32:17.195Z,43.30
2022-08-20T10:34:19.060Z,43.30
2022-08-20T10:36:20.641Z,43.30
2022-08-20T10:38:22.214Z,43.30
2022-08-20T10:40:23.979Z,43.40
2022-08-20T10:42:25.771Z,43.40
2022-08-20T10:44:27.346Z,43.30
2022-08-20T10:46:28.938Z,43.30
2022-08-20T10:48:30.551Z,43.40
2022-08-20T10:50:32.130Z,43.40
2022-08-20T10:52:33.704Z,43.40
2022-08-20T10:54:35.308Z,43.30
2022-08-20T10:56:36.961Z,43.30
2022-08-20T10:58:39.593Z,43.40
2022-08-20T11:00:42.997Z,43.40
2022-08-20T11:02:44.591Z,43.20
2022-08-20T11:04:46.231Z,43.20
2022-08-20T11:08:50.935Z,48.20
2022-08-20T11:10:54.759Z,44.90
2022-08-20T11:12:56.950Z,45.90
2022-08-20T11:14:58.636Z,47.00
2022-08-20T11:17:01.921Z,48.30
2022-08-20T11:19:03.592Z,49.60
2022-08-20T11:21:05.342Z,51.00
2022-08-20T11:23:10.462Z,51.50
2022-08-20T11:25:12.738Z,52.20
2022-08-20T11:27:32.180Z,52.10
2022-08-20T11:29:35.190Z,52.10
2022-08-20T11:31:36.867Z,52.40
2022-08-20T11:33:38.565Z,51.80
2022-08-20T11:35:48.437Z,51.60
2022-08-20T11:37:52.629Z,52.20
2022-08-20T11:39:54.402Z,52.60
2022-08-20T11:41:56.203Z,53.10
2022-08-20T11:44:20.051Z,52.80
2022-08-20T11:46:19.533Z,51.90
2022-08-20T11:48:21.701Z,52.30
2022-08-20T11:50:23.499Z,52.60
2022-08-20T11:52:26.332Z,52.60
2022-08-20T11:54:31.686Z,52.60
2022-08-20T11:56:33.455Z,52.70
2022-08-20T11:58:35.215Z,52.70
2022-08-20T12:00:37.060Z,53.10
2022-08-20T12:02:39.092Z,53.60
2022-08-20T12:04:40.785Z,54.00
2022-08-20T12:06:42.505Z,54.80
2022-08-20T12:08:44.249Z,54.90
2022-08-20T12:10:45.881Z,54.80
2022-08-20T12:12:47.536Z,55.00
2022-08-20T12:14:49.363Z,55.40
2022-08-20T12:16:51.016Z,54.70
2022-08-20T12:18:52.754Z,55.60
2022-08-20T12:20:54.902Z,55.60
2022-08-20T12:22:58.757Z,55.00
2022-08-20T12:25:00.444Z,54.20
2022-08-20T12:27:15.615Z,53.40
2022-08-20T12:29:17.256Z,54.00
2022-08-20T12:31:18.911Z,54.90
2022-08-20T12:33:20.612Z,54.80
2022-08-20T12:35:22.335Z,54.00
2022-08-20T12:37:27.069Z,53.60
2022-08-20T12:39:31.488Z,53.30
2022-08-20T12:41:33.147Z,53.00
2022-08-20T12:43:34.900Z,52.90
2022-08-20T12:45:36.959Z,52.90
2022-08-20T12:47:41.283Z,52.80
2022-08-20T12:49:49.916Z,52.70
2022-08-20T12:51:51.578Z,52.50
2022-08-20T12:53:53.233Z,52.10
2022-08-20T12:55:54.876Z,52.00
2022-08-20T12:58:00.831Z,51.80
2022-08-20T13:00:17.152Z,51.50
2022-08-20T13:02:20.299Z,51.50
2022-08-20T13:04:22.059Z,51.20
2022-08-20T13:06:23.729Z,51.60
2022-08-20T13:08:26.034Z,52.10
2022-08-20T13:10:35.071Z,52.10
2022-08-20T13:12:37.115Z,52.90
2022-08-20T13:14:38.866Z,52.00
2022-08-20T13:16:40.608Z,51.80
2022-08-20T13:18:42.680Z,51.60
2022-08-20T13:20:44.749Z,52.30
2022-08-20T13:22:46.435Z,52.70
2022-08-20T13:24:48.169Z,53.20
2022-08-20T13:26:50.396Z,53.40
2022-08-20T13:28:52.047Z,54.30
2022-08-20T13:30:53.811Z,54.40
2022-08-20T13:32:55.738Z,54.90
2022-08-20T13:34:57.500Z,55.20
2022-08-20T13:36:59.451Z,55.80
2022-08-20T13:39:02.759Z,55.80
2022-08-20T13:41:04.462Z,55.70
2022-08-20T13:43:07.567Z,56.40
2022-08-20T13:45:13.825Z,58.60
2022-08-20T13:47:19.861Z,57.20
2022-08-20T13:49:21.520Z,56.80
2022-08-20T13:51:23.232Z,57.00
2022-08-20T13:53:29.364Z,57.40
2022-08-20T13:55:31.142Z,57.40
2022-08-20T13:57:36.142Z,57.30
2022-08-20T13:59:40.280Z,57.30
2022-08-20T14:01:42.024Z,57.20
2022-08-20T14:03:43.721Z,58.40
2022-08-20T14:05:45.542Z,58.50
2022-08-20T14:07:49.237Z,58.50
2022-08-20T14:09:54.512Z,58.10
2022-08-20T14:11:56.172Z,58.60
2022-08-20T14:13:57.830Z,59.40
2022-08-20T14:15:59.968Z,59.10
2022-08-20T14:18:02.575Z,60.10
2022-08-20T14:20:12.061Z,59.40
2022-08-20T14:22:14.040Z,59.80
2022-08-20T14:24:15.721Z,60.00
2022-08-20T14:26:17.421Z,57.90
2022-08-20T14:28:24.302Z,57.90
2022-08-20T14:30:30.414Z,57.80
2022-08-20T14:32:32.100Z,58.20
2022-08-20T14:34:34.593Z,58.20
2022-08-20T14:36:36.248Z,57.90
2022-08-20T14:38:41.400Z,58.00
2022-08-20T14:40:43.141Z,57.70
2022-08-20T14:42:45.834Z,57.40
2022-08-20T14:44:54.382Z,57.30
2022-08-20T14:46:56.063Z,57.20
2022-08-20T14:48:57.732Z,57.10
2022-08-20T14:51:00.549Z,57.00
2022-08-20T14:53:03.675Z,57.00
2022-08-20T14:55:09.287Z,57.10
2022-08-20T14:57:13.184Z,57.10
2022-08-20T14:59:15.699Z,57.20
2022-08-20T15:01:17.491Z,57.30
2022-08-20T15:03:20.915Z,57.60
2022-08-20T15:05:23.732Z,57.70
2022-08-20T15:07:31.522Z,58.00
2022-08-20T15:09:35.246Z,58.10
2022-08-20T15:11:39.792Z,57.30
2022-08-20T15:13:41.474Z,57.60
2022-08-20T15:15:43.462Z,58.20
2022-08-20T15:17:47.739Z,58.60
2022-08-20T15:19:49.805Z,59.20
2022-08-20T15:21:51.516Z,59.70
2022-08-20T15:23:53.426Z,59.90
2022-08-20T15:25:55.108Z,60.00
2022-08-20T15:28:01.819Z,60.00
2022-08-20T15:30:10.694Z,60.30
2022-08-20T15:32:12.562Z,60.90
2022-08-20T15:34:17.736Z,60.10
2022-08-20T15:36:20.296Z,60.30
2022-08-20T15:38:21.932Z,60.30
2022-08-20T15:40:28.508Z,60.70
2022-08-20T15:42:30.618Z,60.30
2022-08-20T15:44:33.502Z,60.10
2022-08-20T15:46:36.249Z,60.40
2022-08-20T15:48:43.265Z,60.40
2022-08-20T15:51:18.484Z,60.30
2022-08-20T15:53:44.774Z,60.20
2022-08-20T15:55:59.433Z,60.10
2022-08-20T15:58:13.243Z,59.80
2022-08-20T16:00:20.090Z,59.20
2022-08-20T16:02:37.815Z,59.00
2022-08-20T16:04:45.672Z,58.90
2022-08-20T16:06:50.181Z,59.40
2022-08-20T16:09:33.895Z,58.40
2022-08-20T16:11:45.263Z,58.90
2022-08-20T16:13:56.123Z,59.20
2022-08-20T16:16:02.379Z,59.30
2022-08-20T16:18:24.787Z,59.20
2022-08-20T16:20:47.719Z,58.90
2022-08-20T16:22:50.111Z,59.10
2022-08-20T16:24:55.710Z,59.40
2022-08-20T16:27:08.763Z,59.10
2022-08-20T16:29:13.853Z,59.30
2022-08-20T16:31:20.692Z,58.60
2022-08-20T16:33:33.472Z,60.00
2022-08-20T16:35:43.579Z,60.40
2022-08-20T16:37:50.798Z,60.00
2022-08-20T16:39:57.453Z,60.30
2022-08-20T16:41:59.802Z,60.50
2022-08-20T16:44:16.766Z,60.50
2022-08-20T16:46:26.487Z,61.10
2022-08-20T16:48:38.047Z,61.70
2022-08-20T16:50:58.662Z,62.20
2022-08-20T16:53:00.573Z,61.40
2022-08-20T16:55:02.666Z,61.60
2022-08-20T16:57:06.253Z,62.00
2022-08-20T16:59:12.598Z,62.40
2022-08-20T17:01:28.320Z,62.50
2022-08-20T17:03:39.490Z,62.20
2022-08-20T17:05:49.827Z,62.00
2022-08-20T17:08:23.121Z,61.90
2022-08-20T17:10:31.779Z,61.70
2022-08-20T17:12:33.487Z,61.40
2022-08-20T17:14:53.669Z,61.10
2022-08-20T17:16:55.457Z,61.10
2022-08-20T17:19:08.812Z,61.40
2022-08-20T17:21:23.392Z,60.80
2022-08-20T17:23:25.579Z,60.70
2022-08-20T17:25:38.125Z,60.70
2022-08-20T17:27:40.308Z,61.00
2022-08-20T17:29:54.063Z,60.00
2022-08-20T17:31:59.219Z,59.40
2022-08-20T17:34:00.961Z,60.00
2022-08-20T17:36:09.252Z,59.40
2022-08-20T17:38:40.052Z,59.00
2022-08-20T17:40:47.061Z,58.70
2022-08-20T17:43:01.343Z,58.60
2022-08-20T17:45:15.280Z,58.40
2022-08-20T17:47:19.222Z,58.10
2022-08-20T17:49:40.512Z,59.00
2022-08-20T17:51:54.290Z,58.60
2022-08-20T17:54:36.894Z,58.40
2022-08-20T17:56:42.607Z,58.60
2022-08-20T17:58:54.904Z,57.70
2022-08-20T18:00:58.526Z,58.30
2022-08-20T18:03:09.160Z,58.40
2022-08-20T18:05:19.829Z,58.30
2022-08-20T18:07:21.421Z,58.00
2022-08-20T18:09:46.610Z,57.80
2022-08-20T18:12:33.428Z,57.80
2022-08-20T18:14:56.038Z,57.40
2022-08-20T18:17:39.734Z,57.50
2022-08-20T18:20:02.440Z,56.90
2022-08-20T18:22:16.542Z,57.00
2022-08-20T18:24:33.448Z,57.20
2022-08-20T18:26:49.160Z,57.20
2022-08-20T18:29:15.343Z,58.80
2022-08-20T18:31:33.817Z,58.70
2022-08-20T18:33:39.488Z,59.20
2022-08-20T18:35:45.586Z,59.20
2022-08-20T18:37:48.469Z,58.60
2022-08-20T18:39:51.376Z,59.00
2022-08-20T18:42:09.079Z,59.10
2022-08-20T18:44:13.803Z,57.90
2022-08-20T18:46:23.595Z,58.20
2022-08-20T18:48:25.362Z,57.70
2022-08-20T18:50:39.099Z,57.20
2022-08-20T18:52:44.995Z,56.30
2022-08-20T18:54:52.073Z,56.90
2022-08-20T18:57:16.789Z,56.60
2022-08-20T18:59:19.843Z,56.40
2022-08-20T19:01:21.631Z,56.10
2022-08-20T19:03:37.043Z,55.80
2022-08-20T19:05:44.798Z,55.90
2022-08-20T19:07:51.905Z,55.10
2022-08-20T19:10:12.833Z,55.30
2022-08-20T19:13:00.347Z,55.80
2022-08-20T19:15:11.402Z,56.00
2022-08-20T19:17:41.816Z,55.40
2022-08-20T19:19:43.849Z,55.30
2022-08-20T19:21:45.790Z,55.60
2022-08-20T19:23:50.800Z,54.90
2022-08-20T19:26:24.813Z,54.10
2022-08-20T19:28:31.736Z,53.70
2022-08-20T19:30:37.894Z,54.10
2022-08-20T19:32:45.466Z,52.70
2022-08-20T19:34:59.826Z,54.10
2022-08-20T19:37:32.778Z,53.90
2022-08-20T19:39:37.650Z,53.40
2022-08-20T19:41:51.403Z,53.40
2022-08-20T19:43:56.392Z,52.70
2022-08-20T19:45:58.159Z,52.60
2022-08-20T19:48:54.977Z,53.00
2022-08-20T19:51:22.811Z,52.10
2022-08-20T19:53:31.254Z,52.40
2022-08-20T19:55:38.520Z,51.90
2022-08-20T19:57:48.635Z,51.50
2022-08-20T20:00:05.354Z,51.60
2022-08-20T20:02:20.006Z,51.60
2022-08-20T20:04:26.846Z,51.60
2022-08-20T20:06:36.501Z,51.60
2022-08-20T20:09:00.618Z,51.40
2022-08-20T20:11:03.163Z,50.80
2022-08-20T20:13:17.936Z,51.70
2022-08-20T20:15:19.973Z,51.70
2022-08-20T20:17:28.761Z,51.30
2022-08-20T20:19:30.590Z,51.20
2022-08-20T20:22:01.077Z,51.40
2022-08-20T20:24:03.490Z,50.40
2022-08-20T20:26:08.052Z,49.60
2022-08-20T20:28:22.644Z,49.40
2022-08-20T20:30:29.628Z,50.10
2022-08-20T20:32:33.805Z,49.10
2022-08-20T20:34:55.236Z,48.80
2022-08-20T20:37:06.196Z,48.70
2022-08-20T20:39:23.396Z,49.10
2022-08-20T20:41:28.307Z,49.00
2022-08-20T20:43:41.277Z,49.40
2022-08-20T20:45:46.042Z,49.00
2022-08-20T20:47:52.934Z,49.10
2022-08-20T20:50:07.708Z,49.80
2022-08-20T20:52:24.421Z,49.70
2022-08-20T20:54:35.454Z,50.70
2022-08-20T20:56:40.971Z,49.70
2022-08-20T20:58:53.779Z,49.50
2022-08-20T21:00:57.792Z,49.00
2022-08-20T21:03:02.553Z,48.80
2022-08-20T21:05:06.104Z,48.90
2022-08-20T21:07:14.708Z,48.80
2022-08-20T21:09:16.852Z,48.80
2022-08-20T21:11:18.523Z,48.90
2022-08-20T21:13:22.312Z,48.80
2022-08-20T21:15:26.138Z,48.80
2022-08-20T21:17:27.845Z,48.70
2022-08-20T21:19:29.888Z,48.80
2022-08-20T21:21:31.602Z,49.20
2022-08-20T21:23:40.429Z,49.00
2022-08-20T21:25:43.907Z,49.10
2022-08-20T21:27:48.651Z,49.20
2022-08-20T21:29:50.736Z,48.70
2022-08-20T21:31:52.561Z,48.70
2022-08-20T21:33:54.285Z,48.60
2022-08-20T21:35:56.848Z,48.60
2022-08-20T21:37:58.507Z,48.90
2022-08-20T21:40:00.296Z,48.60
2022-08-20T21:42:04.541Z,48.20
2022-08-20T21:44:24.960Z,48.80
2022-08-20T21:46:28.572Z,49.10
2022-08-20T21:48:30.256Z,48.40
2022-08-20T21:50:32.003Z,48.30
2022-08-20T21:52:35.574Z,48.30
2022-08-20T21:54:37.262Z,48.40
2022-08-20T21:56:39.545Z,48.30
2022-08-20T21:58:41.415Z,48.00
2022-08-20T22:01:00.818Z,48.30
2022-08-20T22:03:02.728Z,47.90
2022-08-20T22:05:05.182Z,47.90
2022-08-20T22:07:07.056Z,48.10
2022-08-20T22:09:08.723Z,48.20
2022-08-20T22:11:11.498Z,48.10
2022-08-20T22:13:13.380Z,48.10
2022-08-20T22:15:15.044Z,48.00
2022-08-20T22:17:16.792Z,48.00
2022-08-20T22:19:18.491Z,47.70
2022-08-20T22:21:24.043Z,47.80
2022-08-20T22:23:26.002Z,48.00
2022-08-20T22:25:28.093Z,47.70
2022-08-20T22:27:29.846Z,47.50
2022-08-20T22:29:31.677Z,47.70
2022-08-20T22:31:36.067Z,47.70
2022-08-20T22:33:38.662Z,47.80
2022-08-20T22:35:51.381Z,47.70
2022-08-20T22:37:53.799Z,47.50
2022-08-20T22:39:55.497Z,47.60
2022-08-20T22:41:57.323Z,47.50
2022-08-20T22:43:59.284Z,47.30
2022-08-20T22:46:02.357Z,47.20
2022-08-20T22:48:06.745Z,47.40
2022-08-20T22:50:10.343Z,47.20
2022-08-20T22:52:12.108Z,46.80
2022-08-20T22:54:19.271Z,46.50
2022-08-20T22:56:21.990Z,46.50
2022-08-20T22:58:31.259Z,46.40
2022-08-20T23:00:33.571Z,46.40
2022-08-20T23:02:35.249Z,46.60
2022-08-20T23:04:36.920Z,46.30
2022-08-20T23:06:38.915Z,46.10
2022-08-20T23:08:41.856Z,46.20
2022-08-20T23:10:43.559Z,46.20
2022-08-20T23:12:45.340Z,46.10
2022-08-20T23:14:47.125Z,46.10
2022-08-20T23:16:58.013Z,46.00
2022-08-20T23:19:00.748Z,45.80
2022-08-20T23:21:02.440Z,45.80
2022-08-20T23:23:04.889Z,45.80
2022-08-20T23:25:08.772Z,45.80
2022-08-20T23:27:14.285Z,45.80
2022-08-20T23:29:16.454Z,45.50
2022-08-20T23:31:24.315Z,45.70
2022-08-20T23:33:26.005Z,45.60
2022-08-20T23:35:33.258Z,45.50
2022-08-20T23:37:40.011Z,45.30
2022-08-20T23:39:46.100Z,45.40
2022-08-20T23:41:48.308Z,45.50
2022-08-20T23:43:50.123Z,45.40
2022-08-20T23:45:52.041Z,45.50
2022-08-20T23:47:54.190Z,45.40
2022-08-20T23:49:55.873Z,45.40
2022-08-20T23:52:00.360Z,45.50
2022-08-20T23:54:02.618Z,45.40
2022-08-20T23:56:04.945Z,45.30
2022-08-20T23:58:08.155Z,45.30
